sensor_id;sensor_type;location;lat;lon;timestamp;pressure;altitude;pressure_sealevel;temperature;humidity
8641;BME280;4358;42.100;25.222;2022-11-20T00:00:17;99508.91;;;18.26;100.00
8641;BME280;4358;42.100;25.222;2022-11-20T00:02:44;99498.97;;;18.27;100.00
8641;BME280;4358;42.100;25.222;2022-11-20T00:05:11;99504.19;;;18.20;100.00
8641;BME280;4358;42.100;25.222;2022-11-20T00:07:38;99500.50;;;18.21;100.00
8641;BME280;4358;42.100;25.222;2022-11-20T00:10:05;99504.00;;;18.21;100.00
8641;BME280;4358;42.100;25.222;2022-11-20T00:12:32;99503.34;;;18.19;100.00
8641;BME280;4358;42.100;25.222;2022-11-20T00:15:00;99504.81;;;18.14;100.00
8641;BME280;4358;42.100;25.222;2022-11-20T00:17:27;99497.91;;;18.11;100.00
8641;BME280;4358;42.100;25.222;2022-11-20T00:19:54;99505.44;;;18.08;100.00
8641;BME280;4358;42.100;25.222;2022-11-20T00:22:21;99490.31;;;17.99;100.00
8641;BME280;4358;42.100;25.222;2022-11-20T00:24:48;99467.13;;;17.98;100.00
8641;BME280;4358;42.100;25.222;2022-11-20T00:27:15;99494.56;;;18.09;100.00
8641;BME280;4358;42.100;25.222;2022-11-20T00:29:42;99468.19;;;18.05;100.00
8641;BME280;4358;42.100;25.222;2022-11-20T00:32:10;99475.22;;;18.06;100.00
8641;BME280;4358;42.100;25.222;2022-11-20T00:34:37;99458.72;;;17.93;100.00
8641;BME280;4358;42.100;25.222;2022-11-20T00:37:04;99476.91;;;18.07;100.00
8641;BME280;4358;42.100;25.222;2022-11-20T00:39:31;99477.25;;;18.12;100.00
8641;BME280;4358;42.100;25.222;2022-11-20T00:41:58;99477.97;;;18.14;100.00
8641;BME280;4358;42.100;25.222;2022-11-20T00:44:25;99483.00;;;18.17;100.00
8641;BME280;4358;42.100;25.222;2022-11-20T00:46:52;99494.59;;;18.17;100.00
8641;BME280;4358;42.100;25.222;2022-11-20T00:49:20;99494.28;;;18.20;100.00
8641;BME280;4358;42.100;25.222;2022-11-20T00:51:47;99494.78;;;18.24;100.00
8641;BME280;4358;42.100;25.222;2022-11-20T00:54:13;99498.47;;;18.23;100.00
8641;BME280;4358;42.100;25.222;2022-11-20T00:56:40;99486.88;;;18.23;100.00
8641;BME280;4358;42.100;25.222;2022-11-20T00:59:09;99488.72;;;18.22;100.00
8641;BME280;4358;42.100;25.222;2022-11-20T01:01:37;99495.94;;;18.21;100.00
8641;BME280;4358;42.100;25.222;2022-11-20T01:04:04;99498.47;;;18.23;100.00
8641;BME280;4358;42.100;25.222;2022-11-20T01:06:34;99505.88;;;18.21;100.00
8641;BME280;4358;42.100;25.222;2022-11-20T01:09:03;99505.88;;;18.21;100.00
8641;BME280;4358;42.100;25.222;2022-11-20T01:11:32;99509.56;;;18.20;100.00
8641;BME280;4358;42.100;25.222;2022-11-20T01:14:01;99511.06;;;18.23;100.00
8641;BME280;4358;42.100;25.222;2022-11-20T01:16:30;99502.16;;;18.22;100.00
8641;BME280;4358;42.100;25.222;2022-11-20T01:18:59;99491.41;;;18.22;100.00
8641;BME280;4358;42.100;25.222;2022-11-20T01:21:28;99488.06;;;18.20;100.00
8641;BME280;4358;42.100;25.222;2022-11-20T01:23:57;99489.75;;;18.21;100.00
8641;BME280;4358;42.100;25.222;2022-11-20T01:26:25;99468.72;;;18.16;100.00
8641;BME280;4358;42.100;25.222;2022-11-20T01:28:53;99477.47;;;18.18;100.00
8641;BME280;4358;42.100;25.222;2022-11-20T01:31:21;99451.06;;;18.06;100.00
8641;BME280;4358;42.100;25.222;2022-11-20T01:33:50;99477.63;;;18.17;100.00
8641;BME280;4358;42.100;25.222;2022-11-20T01:36:19;99488.38;;;18.17;100.00
8641;BME280;4358;42.100;25.222;2022-11-20T01:38:47;99479.94;;;18.12;100.00
8641;BME280;4358;42.100;25.222;2022-11-20T01:41:16;99483.97;;;18.08;100.00
8641;BME280;4358;42.100;25.222;2022-11-20T01:43:56;99475.22;;;18.06;100.00
8641;BME280;4358;42.100;25.222;2022-11-20T01:46:24;99478.59;;;18.08;100.00
8641;BME280;4358;42.100;25.222;2022-11-20T01:48:53;99463.31;;;18.00;100.00
8641;BME280;4358;42.100;25.222;2022-11-20T01:51:25;99470.66;;;17.98;100.00
8641;BME280;4358;42.100;25.222;2022-11-20T01:53:57;99471.88;;;18.04;100.00
8641;BME280;4358;42.100;25.222;2022-11-20T01:56:26;99475.91;;;18.08;100.00
8641;BME280;4358;42.100;25.222;2022-11-20T01:58:57;99481.44;;;18.06;100.00
8641;BME280;4358;42.100;25.222;2022-11-20T02:01:25;99469.03;;;18.05;100.00
8641;BME280;4358;42.100;25.222;2022-11-20T02:03:52;99477.75;;;18.07;100.00
8641;BME280;4358;42.100;25.222;2022-11-20T02:06:23;99470.19;;;18.03;100.00
8641;BME280;4358;42.100;25.222;2022-11-20T02:08:51;99472.38;;;18.07;100.00
8641;BME280;4358;42.100;25.222;2022-11-20T02:11:18;99458.44;;;18.04;100.00
8641;BME280;4358;42.100;25.222;2022-11-20T02:13:46;99457.13;;;18.08;100.00
8641;BME280;4358;42.100;25.222;2022-11-20T02:16:16;99457.81;;;18.10;100.00
8641;BME280;4358;42.100;25.222;2022-11-20T02:18:45;99448.91;;;18.09;100.00
8641;BME280;4358;42.100;25.222;2022-11-20T02:21:21;99453.09;;;18.12;100.00
8641;BME280;4358;42.100;25.222;2022-11-20T02:24:03;99447.22;;;18.08;100.00
8641;BME280;4358;42.100;25.222;2022-11-20T02:26:33;99449.06;;;18.08;100.00
8641;BME280;4358;42.100;25.222;2022-11-20T02:29:02;99431.63;;;18.12;100.00
8641;BME280;4358;42.100;25.222;2022-11-20T02:31:35;99441.19;;;18.14;100.00
8641;BME280;4358;42.100;25.222;2022-11-20T02:34:02;99439.38;;;18.15;100.00
8641;BME280;4358;42.100;25.222;2022-11-20T02:36:32;99440.38;;;18.14;100.00
8641;BME280;4358;42.100;25.222;2022-11-20T02:39:02;99451.09;;;18.14;100.00
8641;BME280;4358;42.100;25.222;2022-11-20T02:41:33;99454.78;;;18.13;100.00
8641;BME280;4358;42.100;25.222;2022-11-20T02:44:01;99447.72;;;18.12;100.00
8641;BME280;4358;42.100;25.222;2022-11-20T02:46:28;99445.72;;;18.14;100.00
8641;BME280;4358;42.100;25.222;2022-11-20T02:48:55;99442.06;;;18.15;100.00
8641;BME280;4358;42.100;25.222;2022-11-20T02:51:22;99450.09;;;18.15;100.00
8641;BME280;4358;42.100;25.222;2022-11-20T02:53:49;99457.97;;;18.16;100.00
8641;BME280;4358;42.100;25.222;2022-11-20T02:56:18;99453.16;;;18.20;100.00
8641;BME280;4358;42.100;25.222;2022-11-20T02:58:45;99429.63;;;18.22;100.00
8641;BME280;4358;42.100;25.222;2022-11-20T03:01:12;99449.63;;;18.28;100.00
8641;BME280;4358;42.100;25.222;2022-11-20T03:03:38;99435.34;;;18.27;100.00
8641;BME280;4358;42.100;25.222;2022-11-20T03:06:06;99441.56;;;18.28;100.00
8641;BME280;4358;42.100;25.222;2022-11-20T03:08:33;99441.75;;;18.26;100.00
8641;BME280;4358;42.100;25.222;2022-11-20T03:11:03;99453.31;;;18.27;100.00
8641;BME280;4358;42.100;25.222;2022-11-20T03:13:31;99453.50;;;18.25;100.00
8641;BME280;4358;42.100;25.222;2022-11-20T03:16:05;99444.44;;;18.26;100.00
8641;BME280;4358;42.100;25.222;2022-11-20T03:18:32;99441.56;;;18.28;100.00
8641;BME280;4358;42.100;25.222;2022-11-20T03:20:59;99431.69;;;18.28;100.00
8641;BME280;4358;42.100;25.222;2022-11-20T03:23:29;99421.63;;;18.30;100.00
8641;BME280;4358;42.100;25.222;2022-11-20T03:25:55;99433.34;;;18.29;100.00
8641;BME280;4358;42.100;25.222;2022-11-20T03:28:22;99423.97;;;18.33;100.00
8641;BME280;4358;42.100;25.222;2022-11-20T03:30:50;99443.31;;;18.37;100.00
8641;BME280;4358;42.100;25.222;2022-11-20T03:33:17;99443.31;;;18.37;100.00
8641;BME280;4358;42.100;25.222;2022-11-20T03:35:44;99432.38;;;18.38;100.00
8641;BME280;4358;42.100;25.222;2022-11-20T03:38:11;99432.38;;;18.38;100.00
8641;BME280;4358;42.100;25.222;2022-11-20T03:40:37;99429.38;;;18.41;100.00
8641;BME280;4358;42.100;25.222;2022-11-20T03:43:04;99442.47;;;18.44;100.00
8641;BME280;4358;42.100;25.222;2022-11-20T03:45:31;99447.19;;;18.50;100.00
8641;BME280;4358;42.100;25.222;2022-11-20T03:47:59;99438.78;;;18.45;100.00
8641;BME280;4358;42.100;25.222;2022-11-20T03:50:26;99439.09;;;18.42;100.00
8641;BME280;4358;42.100;25.222;2022-11-20T03:52:53;99435.75;;;18.40;100.00
8641;BME280;4358;42.100;25.222;2022-11-20T03:55:19;99440.28;;;18.40;100.00
8641;BME280;4358;42.100;25.222;2022-11-20T03:57:46;99434.06;;;18.39;100.00
8641;BME280;4358;42.100;25.222;2022-11-20T04:00:14;99438.28;;;18.42;100.00
8641;BME280;4358;42.100;25.222;2022-11-20T04:02:41;99444.16;;;18.45;100.00
8641;BME280;4358;42.100;25.222;2022-11-20T04:05:09;99436.25;;;18.44;100.00
8641;BME280;4358;42.100;25.222;2022-11-20T04:07:36;99430.69;;;18.37;100.00
8641;BME280;4358;42.100;25.222;2022-11-20T04:10:04;99423.13;;;18.33;100.00
8641;BME280;4358;42.100;25.222;2022-11-20T04:12:32;99434.72;;;18.33;100.00
8641;BME280;4358;42.100;25.222;2022-11-20T04:14:59;99444.31;;;18.36;100.00
8641;BME280;4358;42.100;25.222;2022-11-20T04:17:26;99442.47;;;18.36;100.00
8641;BME280;4358;42.100;25.222;2022-11-20T04:19:53;99445.16;;;18.36;100.00
8641;BME280;4358;42.100;25.222;2022-11-20T04:22:21;99440.09;;;18.33;100.00
8641;BME280;4358;42.100;25.222;2022-11-20T04:24:47;99448.00;;;18.35;100.00
8641;BME280;4358;42.100;25.222;2022-11-20T04:27:14;99443.91;;;18.23;100.00
8641;BME280;4358;42.100;25.222;2022-11-20T04:29:41;99444.09;;;18.21;100.00
8641;BME280;4358;42.100;25.222;2022-11-20T04:32:08;99435.28;;;18.11;100.00
8641;BME280;4358;42.100;25.222;2022-11-20T04:34:35;99436.00;;;18.13;100.00
8641;BME280;4358;42.100;25.222;2022-11-20T04:37:02;99426.09;;;18.21;100.00
8641;BME280;4358;42.100;25.222;2022-11-20T04:39:30;99431.00;;;18.26;100.00
8641;BME280;4358;42.100;25.222;2022-11-20T04:41:57;99431.47;;;18.21;100.00
8641;BME280;4358;42.100;25.222;2022-11-20T04:44:38;99439.38;;;18.15;100.00
8641;BME280;4358;42.100;25.222;2022-11-20T04:47:05;99431.94;;;18.09;100.00
8641;BME280;4358;42.100;25.222;2022-11-20T04:49:32;99441.00;;;18.08;100.00
8641;BME280;4358;42.100;25.222;2022-11-20T04:51:59;99440.56;;;18.20;100.00
8641;BME280;4358;42.100;25.222;2022-11-20T04:54:26;99433.16;;;18.23;100.00
8641;BME280;4358;42.100;25.222;2022-11-20T04:56:54;99427.78;;;18.23;100.00
8641;BME280;4358;42.100;25.222;2022-11-20T04:59:21;99429.13;;;18.27;100.00
8641;BME280;4358;42.100;25.222;2022-11-20T05:01:48;99434.72;;;18.33;100.00
8641;BME280;4358;42.100;25.222;2022-11-20T05:04:15;99431.88;;;18.35;100.00
8641;BME280;4358;42.100;25.222;2022-11-20T05:06:42;99423.31;;;18.39;100.00
8641;BME280;4358;42.100;25.222;2022-11-20T05:09:09;99415.59;;;18.44;100.00
8641;BME280;4358;42.100;25.222;2022-11-20T05:11:35;99429.72;;;18.46;100.00
8641;BME280;4358;42.100;25.222;2022-11-20T05:14:04;99422.84;;;18.52;100.00
8641;BME280;4358;42.100;25.222;2022-11-20T05:16:30;99435.47;;;18.59;100.00
8641;BME280;4358;42.100;25.222;2022-11-20T05:18:57;99445.91;;;18.63;100.00
8641;BME280;4358;42.100;25.222;2022-11-20T05:21:24;99444.56;;;18.75;100.00
8641;BME280;4358;42.100;25.222;2022-11-20T05:23:51;99440.72;;;18.77;100.00
8641;BME280;4358;42.100;25.222;2022-11-20T05:26:20;99440.56;;;18.79;100.00
8641;BME280;4358;42.100;25.222;2022-11-20T05:28:48;99427.59;;;18.74;100.00
8641;BME280;4358;42.100;25.222;2022-11-20T05:31:18;99438.69;;;18.79;100.00
8641;BME280;4358;42.100;25.222;2022-11-20T05:33:45;99444.91;;;18.80;100.00
8641;BME280;4358;42.100;25.222;2022-11-20T05:36:14;99443.41;;;18.77;100.00
8641;BME280;4358;42.100;25.222;2022-11-20T05:38:41;99439.53;;;18.80;100.00
8641;BME280;4358;42.100;25.222;2022-11-20T05:41:10;99453.50;;;18.83;100.00
8641;BME280;4358;42.100;25.222;2022-11-20T05:43:38;99457.03;;;18.84;100.00
8641;BME280;4358;42.100;25.222;2022-11-20T05:46:07;99438.00;;;18.69;100.00
8641;BME280;4358;42.100;25.222;2022-11-20T05:48:36;99445.22;;;18.69;100.00
8641;BME280;4358;42.100;25.222;2022-11-20T05:51:06;99456.84;;;18.69;100.00
8641;BME280;4358;42.100;25.222;2022-11-20T05:53:33;99460.91;;;18.73;100.00
8641;BME280;4358;42.100;25.222;2022-11-20T05:56:02;99459.22;;;18.80;100.00
8641;BME280;4358;42.100;25.222;2022-11-20T05:58:30;99462.59;;;18.82;100.00
8641;BME280;4358;42.100;25.222;2022-11-20T06:01:04;99461.75;;;18.98;100.00
8641;BME280;4358;42.100;25.222;2022-11-20T06:03:31;99457.22;;;19.07;100.00
8641;BME280;4358;42.100;25.222;2022-11-20T06:06:00;99467.16;;;19.14;100.00
8641;BME280;4358;42.100;25.222;2022-11-20T06:08:26;99464.13;;;19.17;100.00
8641;BME280;4358;42.100;25.222;2022-11-20T06:10:53;99475.56;;;19.19;100.00
8641;BME280;4358;42.100;25.222;2022-11-20T06:13:20;99476.41;;;19.20;100.00
8641;BME280;4358;42.100;25.222;2022-11-20T06:15:48;99478.06;;;19.13;100.00
8641;BME280;4358;42.100;25.222;2022-11-20T06:18:15;99475.19;;;19.06;100.00
8641;BME280;4358;42.100;25.222;2022-11-20T06:20:42;99470.81;;;18.97;100.00
8641;BME280;4358;42.100;25.222;2022-11-20T06:23:10;99482.25;;;18.91;100.00
8641;BME280;4358;42.100;25.222;2022-11-20T06:25:38;99480.91;;;18.87;100.00
8641;BME280;4358;42.100;25.222;2022-11-20T06:28:05;99478.56;;;18.84;100.00
8641;BME280;4358;42.100;25.222;2022-11-20T06:30:32;99484.59;;;18.78;100.00
8641;BME280;4358;42.100;25.222;2022-11-20T06:32:59;99481.06;;;18.77;100.00
8641;BME280;4358;42.100;25.222;2022-11-20T06:35:25;99488.78;;;18.80;100.00
8641;BME280;4358;42.100;25.222;2022-11-20T06:37:52;99488.28;;;18.77;100.00
8641;BME280;4358;42.100;25.222;2022-11-20T06:40:21;99488.97;;;18.79;100.00
8641;BME280;4358;42.100;25.222;2022-11-20T06:42:47;99495.16;;;18.79;100.00
8641;BME280;4358;42.100;25.222;2022-11-20T06:45:14;99496.34;;;18.77;100.00
8641;BME280;4358;42.100;25.222;2022-11-20T06:47:41;99490.13;;;18.76;100.00
8641;BME280;4358;42.100;25.222;2022-11-20T06:50:08;99482.91;;;18.77;100.00
8641;BME280;4358;42.100;25.222;2022-11-20T06:52:35;99488.97;;;18.79;100.00
8641;BME280;4358;42.100;25.222;2022-11-20T06:55:02;99489.28;;;18.76;100.00
8641;BME280;4358;42.100;25.222;2022-11-20T06:57:31;99494.16;;;18.80;100.00
8641;BME280;4358;42.100;25.222;2022-11-20T06:59:58;99494.00;;;18.82;100.00
8641;BME280;4358;42.100;25.222;2022-11-20T07:02:24;99493.66;;;18.85;100.00
8641;BME280;4358;42.100;25.222;2022-11-20T07:04:51;99492.66;;;18.86;100.00
8641;BME280;4358;42.100;25.222;2022-11-20T07:07:18;99486.78;;;18.90;100.00
8641;BME280;4358;42.100;25.222;2022-11-20T07:09:45;99491.00;;;18.93;100.00
8641;BME280;4358;42.100;25.222;2022-11-20T07:12:12;99495.03;;;18.89;100.00
8641;BME280;4358;42.100;25.222;2022-11-20T07:14:40;99498.56;;;18.97;100.00
8641;BME280;4358;42.100;25.222;2022-11-20T07:17:06;99500.75;;;19.02;100.00
8641;BME280;4358;42.100;25.222;2022-11-20T07:19:33;99490.50;;;19.05;100.00
8641;BME280;4358;42.100;25.222;2022-11-20T07:22:00;99494.38;;;19.11;100.00
8641;BME280;4358;42.100;25.222;2022-11-20T07:24:27;99497.41;;;19.16;100.00
8641;BME280;4358;42.100;25.222;2022-11-20T07:26:54;99497.59;;;19.15;100.00
8641;BME280;4358;42.100;25.222;2022-11-20T07:29:20;99512.69;;;19.16;100.00
8641;BME280;4358;42.100;25.222;2022-11-20T07:31:49;99500.78;;;19.18;100.00
8641;BME280;4358;42.100;25.222;2022-11-20T07:34:15;99505.81;;;19.21;100.00
8641;BME280;4358;42.100;25.222;2022-11-20T07:36:42;99510.88;;;19.24;100.00
8641;BME280;4358;42.100;25.222;2022-11-20T07:39:09;99508.84;;;19.26;100.00
8641;BME280;4358;42.100;25.222;2022-11-20T07:41:36;99509.34;;;19.30;100.00
8641;BME280;4358;42.100;25.222;2022-11-20T07:44:03;99511.53;;;19.34;100.00
8641;BME280;4358;42.100;25.222;2022-11-20T07:46:30;99509.53;;;19.36;100.00
8641;BME280;4358;42.100;25.222;2022-11-20T07:48:58;99508.56;;;19.45;100.00
8641;BME280;4358;42.100;25.222;2022-11-20T07:51:25;99511.72;;;19.49;100.00
8641;BME280;4358;42.100;25.222;2022-11-20T07:53:52;99512.91;;;19.55;100.00
8641;BME280;4358;42.100;25.222;2022-11-20T07:56:19;99515.44;;;19.56;100.00
8641;BME280;4358;42.100;25.222;2022-11-20T07:58:46;99521.81;;;19.63;100.00
8641;BME280;4358;42.100;25.222;2022-11-20T08:01:13;99515.25;;;19.66;100.00
8641;BME280;4358;42.100;25.222;2022-11-20T08:03:40;99525.69;;;19.69;100.00
8641;BME280;4358;42.100;25.222;2022-11-20T08:06:08;99522.34;;;19.67;100.00
8641;BME280;4358;42.100;25.222;2022-11-20T08:08:35;99519.44;;;19.68;100.00
8641;BME280;4358;42.100;25.222;2022-11-20T08:11:05;99513.91;;;19.70;100.00
8641;BME280;4358;42.100;25.222;2022-11-20T08:13:49;99509.72;;;19.67;100.00
8641;BME280;4358;42.100;25.222;2022-11-20T08:16:33;99515.94;;;19.68;100.00
8641;BME280;4358;42.100;25.222;2022-11-20T08:19:00;99507.34;;;19.64;100.00
8641;BME280;4358;42.100;25.222;2022-11-20T08:21:29;99489.69;;;19.54;100.00
8641;BME280;4358;42.100;25.222;2022-11-20T08:23:57;99518.28;;;19.63;100.00
8641;BME280;4358;42.100;25.222;2022-11-20T08:26:24;99517.13;;;19.57;100.00
8641;BME280;4358;42.100;25.222;2022-11-20T08:28:53;99521.66;;;19.57;100.00
8641;BME280;4358;42.100;25.222;2022-11-20T08:31:20;99516.28;;;19.57;100.00
8641;BME280;4358;42.100;25.222;2022-11-20T08:33:47;99518.78;;;19.58;100.00
8641;BME280;4358;42.100;25.222;2022-11-20T08:36:14;99532.59;;;19.55;100.00
8641;BME280;4358;42.100;25.222;2022-11-20T08:38:46;99534.44;;;19.55;100.00
8641;BME280;4358;42.100;25.222;2022-11-20T08:41:13;99525.69;;;19.53;100.00
8641;BME280;4358;42.100;25.222;2022-11-20T08:43:54;99516.28;;;19.49;100.00
8641;BME280;4358;42.100;25.222;2022-11-20T08:46:23;99513.25;;;19.52;100.00
8641;BME280;4358;42.100;25.222;2022-11-20T08:48:50;99512.91;;;19.55;100.00
8641;BME280;4358;42.100;25.222;2022-11-20T08:51:17;99510.91;;;19.57;100.00
8641;BME280;4358;42.100;25.222;2022-11-20T08:53:46;99503.84;;;19.56;100.00
8641;BME280;4358;42.100;25.222;2022-11-20T08:56:15;99513.75;;;19.55;100.00
8641;BME280;4358;42.100;25.222;2022-11-20T08:58:41;99502.31;;;19.53;100.00
8641;BME280;4358;42.100;25.222;2022-11-20T09:01:08;99496.41;;;19.58;100.00
8641;BME280;4358;42.100;25.222;2022-11-20T09:03:35;99504.81;;;19.63;100.00
8641;BME280;4358;42.100;25.222;2022-11-20T09:06:04;99509.03;;;19.65;100.00
8641;BME280;4358;42.100;25.222;2022-11-20T09:08:32;99493.72;;;19.66;100.00
8641;BME280;4358;42.100;25.222;2022-11-20T09:11:00;99497.75;;;19.70;100.00
8641;BME280;4358;42.100;25.222;2022-11-20T09:13:28;99502.13;;;19.71;100.00
8641;BME280;4358;42.100;25.222;2022-11-20T09:15:55;99496.38;;;19.74;100.00
8641;BME280;4358;42.100;25.222;2022-11-20T09:18:23;99484.66;;;19.67;100.00
8641;BME280;4358;42.100;25.222;2022-11-20T09:20:50;99478.59;;;19.73;100.00
8641;BME280;4358;42.100;25.222;2022-11-20T09:23:17;99473.00;;;19.74;100.00
8641;BME280;4358;42.100;25.222;2022-11-20T09:25:44;99461.06;;;19.77;100.00
8641;BME280;4358;42.100;25.222;2022-11-20T09:28:12;99461.03;;;19.85;100.00
8641;BME280;4358;42.100;25.222;2022-11-20T09:30:39;99467.72;;;19.97;100.00
8641;BME280;4358;42.100;25.222;2022-11-20T09:33:06;99460.97;;;20.09;100.00
8641;BME280;4358;42.100;25.222;2022-11-20T09:35:33;99422.94;;;20.04;100.00
8641;BME280;4358;42.100;25.222;2022-11-20T09:38:05;99382.22;;;19.99;100.00
8641;BME280;4358;42.100;25.222;2022-11-20T09:40:32;99437.03;;;20.53;100.00
8641;BME280;4358;42.100;25.222;2022-11-20T09:43:02;99436.75;;;20.71;100.00
8641;BME280;4358;42.100;25.222;2022-11-20T09:45:43;99453.47;;;20.89;100.00
8641;BME280;4358;42.100;25.222;2022-11-20T09:48:25;99453.63;;;21.19;100.00
8641;BME280;4358;42.100;25.222;2022-11-20T09:51:00;99455.66;;;21.54;100.00
8641;BME280;4358;42.100;25.222;2022-11-20T09:53:38;99448.72;;;21.74;100.00
8641;BME280;4358;42.100;25.222;2022-11-20T09:56:11;99449.50;;;21.98;100.00
8641;BME280;4358;42.100;25.222;2022-11-20T09:58:40;99460.19;;;22.20;100.00
8641;BME280;4358;42.100;25.222;2022-11-20T10:01:13;99466.50;;;22.42;100.00
8641;BME280;4358;42.100;25.222;2022-11-20T10:03:50;99447.09;;;22.53;100.00
8641;BME280;4358;42.100;25.222;2022-11-20T10:06:23;99442.44;;;22.47;100.00
8641;BME280;4358;42.100;25.222;2022-11-20T10:08:55;99447.09;;;22.53;100.00
8641;BME280;4358;42.100;25.222;2022-11-20T10:11:33;99442.44;;;22.47;100.00
8641;BME280;4358;42.100;25.222;2022-11-20T10:14:10;99442.56;;;22.39;100.00
8641;BME280;4358;42.100;25.222;2022-11-20T10:16:48;99446.13;;;22.39;100.00
8641;BME280;4358;42.100;25.222;2022-11-20T10:19:37;99443.16;;;22.34;100.00
8641;BME280;4358;42.100;25.222;2022-11-20T10:22:17;99440.63;;;22.33;100.00
8641;BME280;4358;42.100;25.222;2022-11-20T10:24:55;99440.91;;;22.23;100.00
8641;BME280;4358;42.100;25.222;2022-11-20T10:27:54;99433.75;;;22.16;100.00
8641;BME280;4358;42.100;25.222;2022-11-20T10:30:25;99438.59;;;22.06;100.00
8641;BME280;4358;42.100;25.222;2022-11-20T10:32:57;99432.63;;;21.95;100.00
8641;BME280;4358;42.100;25.222;2022-11-20T10:35:28;99428.69;;;21.83;100.00
8641;BME280;4358;42.100;25.222;2022-11-20T10:38:02;99428.63;;;21.77;100.00
8641;BME280;4358;42.100;25.222;2022-11-20T10:40:33;99419.47;;;21.78;100.00
8641;BME280;4358;42.100;25.222;2022-11-20T10:43:04;99416.22;;;21.82;100.00
8641;BME280;4358;42.100;25.222;2022-11-20T10:45:45;99409.78;;;21.83;100.00
8641;BME280;4358;42.100;25.222;2022-11-20T10:48:21;99405.88;;;21.86;100.00
8641;BME280;4358;42.100;25.222;2022-11-20T10:50:57;99392.19;;;21.87;100.00
8641;BME280;4358;42.100;25.222;2022-11-20T10:53:38;99403.66;;;22.04;100.00
8641;BME280;4358;42.100;25.222;2022-11-20T10:56:14;99402.44;;;22.07;100.00
8641;BME280;4358;42.100;25.222;2022-11-20T10:58:47;99384.81;;;22.11;100.00
8641;BME280;4358;42.100;25.222;2022-11-20T11:01:18;99385.47;;;22.13;100.00
8641;BME280;4358;42.100;25.222;2022-11-20T11:03:48;99387.53;;;22.11;100.00
8641;BME280;4358;42.100;25.222;2022-11-20T11:06:21;99374.41;;;22.08;100.00
8641;BME280;4358;42.100;25.222;2022-11-20T11:08:51;99380.81;;;22.07;100.00
8641;BME280;4358;42.100;25.222;2022-11-20T11:11:23;99371.31;;;22.11;100.00
8641;BME280;4358;42.100;25.222;2022-11-20T11:13:51;99367.84;;;22.17;100.00
8641;BME280;4358;42.100;25.222;2022-11-20T11:16:22;99353.94;;;22.20;100.00
8641;BME280;4358;42.100;25.222;2022-11-20T11:18:51;99355.91;;;22.26;100.00
8641;BME280;4358;42.100;25.222;2022-11-20T11:21:22;99347.03;;;22.32;100.00
8641;BME280;4358;42.100;25.222;2022-11-20T11:23:58;99337.50;;;22.36;100.00
8641;BME280;4358;42.100;25.222;2022-11-20T11:26:26;99354.25;;;22.46;100.00
8641;BME280;4358;42.100;25.222;2022-11-20T11:28:58;99338.59;;;22.63;100.00
8641;BME280;4358;42.100;25.222;2022-11-20T11:31:27;99337.94;;;22.75;100.00
8641;BME280;4358;42.100;25.222;2022-11-20T11:34:05;99338.44;;;22.86;100.00
8641;BME280;4358;42.100;25.222;2022-11-20T11:36:32;99338.03;;;22.89;100.00
8641;BME280;4358;42.100;25.222;2022-11-20T11:39:00;99334.31;;;22.90;100.00
8641;BME280;4358;42.100;25.222;2022-11-20T11:41:30;99332.63;;;22.89;100.00
8641;BME280;4358;42.100;25.222;2022-11-20T11:44:01;99332.44;;;22.90;100.00
8641;BME280;4358;42.100;25.222;2022-11-20T11:46:57;99334.72;;;22.87;100.00
8641;BME280;4358;42.100;25.222;2022-11-20T11:49:25;99329.31;;;22.87;100.00
8641;BME280;4358;42.100;25.222;2022-11-20T11:52:03;99328.84;;;22.83;100.00
8641;BME280;4358;42.100;25.222;2022-11-20T11:54:41;99342.19;;;22.85;100.00
8641;BME280;4358;42.100;25.222;2022-11-20T11:57:14;99327.63;;;22.86;100.00
8641;BME280;4358;42.100;25.222;2022-11-20T11:59:51;99325.75;;;22.86;100.00
8641;BME280;4358;42.100;25.222;2022-11-20T12:02:32;99318.47;;;22.87;100.00
8641;BME280;4358;42.100;25.222;2022-11-20T12:05:10;99329.34;;;22.93;100.00
8641;BME280;4358;42.100;25.222;2022-11-20T12:07:42;99317.72;;;22.99;100.00
8641;BME280;4358;42.100;25.222;2022-11-20T12:10:20;99318.56;;;23.00;100.00
8641;BME280;4358;42.100;25.222;2022-11-20T12:12:52;99324.81;;;23.00;100.00
8641;BME280;4358;42.100;25.222;2022-11-20T12:15:26;99316.53;;;23.02;100.00
8641;BME280;4358;42.100;25.222;2022-11-20T12:17:55;99316.53;;;23.02;100.00
8641;BME280;4358;42.100;25.222;2022-11-20T12:20:26;99313.56;;;22.97;100.00
8641;BME280;4358;42.100;25.222;2022-11-20T12:22:59;99313.94;;;22.94;100.00
8641;BME280;4358;42.100;25.222;2022-11-20T12:25:29;99307.25;;;22.90;100.00
8641;BME280;4358;42.100;25.222;2022-11-20T12:28:48;99309.06;;;22.83;100.00
8641;BME280;4358;42.100;25.222;2022-11-20T12:31:32;99295.03;;;22.72;100.00
8641;BME280;4358;42.100;25.222;2022-11-20T12:34:15;99303.34;;;22.71;100.00
8641;BME280;4358;42.100;25.222;2022-11-20T12:36:52;99306.41;;;22.68;100.00
8641;BME280;4358;42.100;25.222;2022-11-20T12:39:35;99299.72;;;22.64;100.00
8641;BME280;4358;42.100;25.222;2022-11-20T12:45:28;99272.41;;;22.59;100.00
8641;BME280;4358;42.100;25.222;2022-11-20T12:48:11;99276.41;;;22.63;100.00
8641;BME280;4358;42.100;25.222;2022-11-20T12:50:51;99287.03;;;22.64;100.00
8641;BME280;4358;42.100;25.222;2022-11-20T12:53:29;99279.63;;;22.73;100.00
8641;BME280;4358;42.100;25.222;2022-11-20T12:56:05;99293.88;;;22.82;100.00
8641;BME280;4358;42.100;25.222;2022-11-20T12:58:43;99286.63;;;22.89;100.00
8641;BME280;4358;42.100;25.222;2022-11-20T13:01:23;99295.34;;;22.84;100.00
8641;BME280;4358;42.100;25.222;2022-11-20T13:04:19;99302.38;;;22.78;100.00
8641;BME280;4358;42.100;25.222;2022-11-20T13:06:52;99295.69;;;22.74;100.00
8641;BME280;4358;42.100;25.222;2022-11-20T13:09:22;99293.72;;;22.68;100.00
8641;BME280;4358;42.100;25.222;2022-11-20T13:12:03;99304.53;;;22.68;100.00
8641;BME280;4358;42.100;25.222;2022-11-20T13:14:35;99293.91;;;22.67;100.00
8641;BME280;4358;42.100;25.222;2022-11-20T13:17:09;99300.31;;;22.59;100.00